Wrightstown, NJ

5:07 AM EDT on October 25, 2014 (GMT -0400)
Jacobstown | Change Station
CLOSE
Current Station
Personal Weather Station
Location: Wrightstown, NJ
Elevation: 141 ft
Nearby Weather Stations

Elev 141 ft 40.08 °N, 74.56 °W | Updated 7 minutes ago

Clear
Clear
46.4 °F
Feels Like 46 °F
N
0.0
Wind Variable Wind from West
Gusts 0.7 mph

Today
High -- | Low -- °F
--% Chance of Precip.
Yesterday
High -- | Low -- °F
Precip. -- in
7:19 AM 6:04 PM
New Moon, 2% visible
Pressure 29.89 in
Visibility 4.0 miles
Clouds Clear
Windchill 46 °F
Dew Point 37 °F
Humidity 69%
Rainfall 0.00 in
Snow Depth Not available.
UV 0 out of 12
Pollen .30 out of 12
Ozone Good
PM2.5 Good
Flu Activity Sporadic
METAR KWRI 250858Z AUTO 28002KT 4SM R24/4000FT HZ CLR 09/02 A2988 RMK AO2 SLP122 T00870021 50004 $

More Conditions Fewer Conditions

Pressure 29.89 in
Visibility 4.0 miles
Clouds Clear
Windchill 46 °F
Dew Point 37 °F
Humidity 69%
Rainfall 0.00 in
Snow Depth Not available.
UV 0 out of 12
Pollen .30 out of 12
Ozone Good
PM2.5 Good
Flu Activity Sporadic
METAR KWRI 250858Z AUTO 28002KT 4SM R24/4000FT HZ CLR 09/02 A2988 RMK AO2 SLP122 T00870021 50004 $

More Conditions Fewer Conditions

10-Day Weather Forecast

Almanac

Astronomy

Oct. 25, 2014 Rise Set
Actual Time 7:19 AM EDT 6:04 PM EDT
Civil Twilight 6:51 AM EDT 6:32 PM EDT
Nautical Twilight 6:20 AM EDT 7:04 PM EDT
Astronomical Twilight 5:48 AM EDT 7:35 PM EDT
Moon 8:56 AM EDT 7:25 PM EDT
Length of Visible Light 11h 40m
Length of Day
10h 44m
Tomorrow will be 2m 27s shorter.
New Moon, 2% of the Moon is Illuminated
Today
New Moon
Oct 30
First Quarter
Nov 6
Full
Nov 14
Last Quarter
Nov 22
New

Today's Extremes

State Highs State Lows

Community

WunderPhotos

Upload Photos

1,764,796 photos uploaded!

Nearby

Air Quality

  Air Quality AQ Index Pollutant
Yesterday Good
OZONE
Yesterday Good
PM2.5
Current Good
PM2.5
Current Good
OZONE
Saturday Moderate
PM2.5
Sunday Good
PM2.5
Monday Good
PM2.5

Snow Depth

Station Depth Elevation
No new snow has been reported.

Earthquake Activity

City Distance Mag. Time & Date
No recent earthquake activity has been reported nearby.
Minimum magnitude displayed is 2.5.

Coastal Water Temperatures

Place Temperature
No Stations Reporting

Nearby Weather Stations